createdAt,value
2023-01-02T00:07:28.837Z,75309.34
2023-01-02T00:17:35.667Z,75293.16
2023-01-02T00:27:39.977Z,75295.19
2023-01-02T00:37:42.475Z,75289.13
2023-01-02T00:47:45.588Z,75281.03
2023-01-02T00:57:50.325Z,75291.13
2023-01-02T01:07:56.342Z,75305.31
2023-01-02T01:17:58.788Z,75305.31
2023-01-02T01:28:03.504Z,75293.16
2023-01-02T01:38:08.197Z,75285.06
2023-01-02T01:48:14.404Z,75276.97
2023-01-02T01:58:25.267Z,75264.84
2023-01-02T02:08:48.356Z,75256.75
2023-01-02T02:19:29.547Z,75250.66
2023-01-02T02:29:43.745Z,75258.75
2023-01-02T02:40:07.170Z,75264.84
2023-01-02T02:50:13.377Z,75276.97
2023-01-02T03:00:20.091Z,75276.97
2023-01-02T03:10:47.493Z,75281.03
2023-01-02T03:21:17.270Z,75272.94
2023-01-02T03:31:23.503Z,75283.03
2023-01-02T03:41:28.973Z,75272.94
2023-01-02T03:51:30.996Z,75281.03
2023-01-02T04:01:54.798Z,75297.22
2023-01-02T04:12:05.339Z,75293.16
2023-01-02T04:22:15.094Z,75309.34
2023-01-02T04:32:18.840Z,75311.38
2023-01-02T04:42:20.863Z,75329.59
2023-01-02T04:52:23.058Z,75305.31
2023-01-02T05:02:31.031Z,75313.41
2023-01-02T05:12:39.984Z,75341.72
2023-01-02T05:23:03.004Z,75343.75
2023-01-02T05:33:05.144Z,75357.91
2023-01-02T05:43:07.117Z,75366.00
2023-01-02T05:53:11.852Z,75386.25
2023-01-02T06:03:16.265Z,75406.47
2023-01-02T06:13:20.377Z,75418.63
2023-01-02T06:23:24.710Z,75436.84
2023-01-02T06:33:27.065Z,75467.19
2023-01-02T06:43:30.043Z,75487.44
2023-01-02T06:53:36.876Z,75491.47
2023-01-02T07:03:41.486Z,75509.69
2023-01-02T07:13:44.687Z,75515.75
2023-01-02T07:23:49.374Z,75489.44
2023-01-02T07:33:51.417Z,75467.19
2023-01-02T07:43:55.541Z,75446.97
2023-01-02T07:53:57.695Z,75442.91
2023-01-02T08:04:00.145Z,75442.91
2023-01-02T08:14:05.557Z,75430.75
2023-01-02T08:24:12.728Z,75410.53
2023-01-02T08:34:20.195Z,75406.47
2023-01-02T08:44:25.391Z,75390.28
2023-01-02T08:54:27.522Z,75341.72
2023-01-02T09:04:32.071Z,75309.34
2023-01-02T09:14:41.439Z,75307.31
2023-01-02T09:24:43.531Z,75291.13
2023-01-02T09:34:51.031Z,75250.66
2023-01-02T09:44:55.739Z,75222.34
2023-01-02T09:55:00.577Z,75187.94
2023-01-02T10:05:26.640Z,75153.53
2023-01-02T10:15:29.816Z,75115.09
2023-01-02T10:26:11.842Z,75104.97
2023-01-02T10:36:29.248Z,75074.63
2023-01-02T10:46:38.317Z,75046.28
2023-01-02T10:56:40.884Z,75040.22
2023-01-02T11:06:53.943Z,75005.81
2023-01-02T11:17:07.490Z,74995.72
2023-01-02T11:27:09.728Z,74961.31
2023-01-02T11:37:16.791Z,74937.03
2023-01-02T11:47:24.980Z,74924.88
2023-01-02T11:57:45.589Z,74908.69
2023-01-02T12:07:54.519Z,74910.72
2023-01-02T12:18:05.796Z,74884.41
2023-01-02T12:28:58.309Z,74876.31
2023-01-02T12:39:24.413Z,74862.16
2023-01-02T12:49:55.070Z,74856.09
2023-01-02T13:00:05.719Z,74839.91
2023-01-02T13:10:16.260Z,74811.56
2023-01-02T13:20:31.097Z,74783.25
2023-01-02T13:30:48.646Z,74746.84
2023-01-02T13:40:56.554Z,74732.66
2023-01-02T13:51:00.727Z,74732.66
2023-01-02T14:01:27.079Z,74726.59
2023-01-02T14:11:55.725Z,74726.59
2023-01-02T14:22:02.521Z,74748.84
2023-01-02T14:32:09.103Z,74742.78
2023-01-02T14:42:57.653Z,74758.97
2023-01-02T14:53:03.405Z,74775.16
2023-01-02T15:03:32.659Z,74787.28
2023-01-02T15:14:04.768Z,74807.53
2023-01-02T15:24:00.503Z,74807.53
2023-01-02T15:34:07.243Z,74821.69
2023-01-02T15:44:29.884Z,74850.03
2023-01-02T15:54:38.201Z,74868.22
2023-01-02T16:04:40.226Z,74866.22
2023-01-02T16:14:45.937Z,74868.22
2023-01-02T16:24:52.713Z,74868.22
2023-01-02T16:35:04.129Z,74882.41
2023-01-02T16:45:07.020Z,74892.50
2023-01-02T16:55:16.778Z,74890.50
2023-01-02T17:05:20.879Z,74900.59
2023-01-02T17:15:25.522Z,74908.69
2023-01-02T17:25:30.441Z,74916.78
2023-01-02T17:35:34.751Z,74918.81
2023-01-02T17:45:41.852Z,74937.03
2023-01-02T17:55:51.635Z,74955.25
2023-01-02T18:06:14.154Z,74973.44
2023-01-02T18:16:24.644Z,74991.66
2023-01-02T18:26:30.781Z,74997.72
2023-01-02T18:36:44.254Z,74997.72
2023-01-02T18:47:04.307Z,74997.72
2023-01-02T18:57:20.342Z,74995.72
2023-01-02T19:07:37.900Z,75005.81
2023-01-02T19:17:41.150Z,74999.75
2023-01-02T19:27:48.133Z,75013.91
2023-01-02T19:37:52.699Z,75020.00
2023-01-02T19:47:58.313Z,75026.06
2023-01-02T19:58:06.253Z,75011.91
2023-01-02T20:08:08.402Z,74993.69
2023-01-02T20:18:12.884Z,74969.41
2023-01-02T20:28:18.249Z,74965.34
2023-01-02T20:38:23.295Z,74959.28
2023-01-02T20:48:30.216Z,74939.06
2023-01-02T20:58:34.889Z,74928.94
2023-01-02T21:08:39.365Z,74943.09
2023-01-02T21:18:46.805Z,74955.25
2023-01-02T21:28:51.140Z,74961.31
2023-01-02T21:38:55.863Z,74969.41
2023-01-02T21:49:02.701Z,74969.41
2023-01-02T21:59:08.515Z,74963.34
2023-01-02T22:09:13.105Z,74959.28
2023-01-02T22:19:15.721Z,74969.41
2023-01-02T22:29:29.212Z,74985.59
2023-01-02T22:39:43.117Z,75001.78
2023-01-02T22:49:45.876Z,75017.97
2023-01-02T22:59:48.044Z,75042.25
2023-01-02T23:09:52.470Z,75058.44
2023-01-02T23:19:57.413Z,75080.69
2023-01-02T23:29:59.528Z,75086.75
2023-01-02T23:40:01.796Z,75094.84
2023-01-02T23:50:04.717Z,75109.03
